sensor_id;sensor_type;location;lat;lon;timestamp;P1;durP1;ratioP1;P2;durP2;ratioP2
61905;SDS011;47863;55.766;37.672;2023-12-29T00:01:32;3.80;;;1.60;;
61905;SDS011;47863;55.766;37.672;2023-12-29T00:03:57;3.47;;;1.50;;
61905;SDS011;47863;55.766;37.672;2023-12-29T00:06:23;3.25;;;1.60;;
61905;SDS011;47863;55.766;37.672;2023-12-29T00:08:49;3.83;;;1.60;;
61905;SDS011;47863;55.766;37.672;2023-12-29T00:11:20;5.72;;;1.58;;
61905;SDS011;47863;55.766;37.672;2023-12-29T00:13:46;3.80;;;1.50;;
61905;SDS011;47863;55.766;37.672;2023-12-29T00:16:12;5.22;;;2.10;;
61905;SDS011;47863;55.766;37.672;2023-12-29T00:18:38;3.75;;;1.30;;
61905;SDS011;47863;55.766;37.672;2023-12-29T00:21:04;2.92;;;1.30;;
61905;SDS011;47863;55.766;37.672;2023-12-29T00:23:31;3.72;;;1.58;;
61905;SDS011;47863;55.766;37.672;2023-12-29T00:25:56;3.20;;;1.30;;
61905;SDS011;47863;55.766;37.672;2023-12-29T00:28:22;5.15;;;1.45;;
61905;SDS011;47863;55.766;37.672;2023-12-29T00:30:48;2.15;;;1.05;;
61905;SDS011;47863;55.766;37.672;2023-12-29T00:33:13;2.72;;;1.33;;
61905;SDS011;47863;55.766;37.672;2023-12-29T00:35:39;4.47;;;2.03;;
61905;SDS011;47863;55.766;37.672;2023-12-29T00:38:05;3.72;;;1.70;;
61905;SDS011;47863;55.766;37.672;2023-12-29T00:40:31;4.43;;;1.50;;
61905;SDS011;47863;55.766;37.672;2023-12-29T00:42:59;4.40;;;1.50;;
61905;SDS011;47863;55.766;37.672;2023-12-29T00:45:25;1.00;;;0.68;;
61905;SDS011;47863;55.766;37.672;2023-12-29T00:47:54;3.33;;;1.50;;
61905;SDS011;47863;55.766;37.672;2023-12-29T00:50:20;5.03;;;1.48;;
61905;SDS011;47863;55.766;37.672;2023-12-29T00:52:46;3.63;;;1.63;;
61905;SDS011;47863;55.766;37.672;2023-12-29T00:55:11;4.40;;;2.10;;
61905;SDS011;47863;55.766;37.672;2023-12-29T00:57:37;4.72;;;1.98;;
61905;SDS011;47863;55.766;37.672;2023-12-29T01:00:03;3.78;;;1.83;;
61905;SDS011;47863;55.766;37.672;2023-12-29T01:02:30;3.42;;;1.33;;
61905;SDS011;47863;55.766;37.672;2023-12-29T01:04:55;2.65;;;1.20;;
61905;SDS011;47863;55.766;37.672;2023-12-29T01:07:21;3.13;;;1.60;;
61905;SDS011;47863;55.766;37.672;2023-12-29T01:09:46;4.75;;;2.10;;
61905;SDS011;47863;55.766;37.672;2023-12-29T01:12:12;3.53;;;1.48;;
61905;SDS011;47863;55.766;37.672;2023-12-29T01:14:40;4.07;;;1.70;;
61905;SDS011;47863;55.766;37.672;2023-12-29T01:17:05;4.07;;;1.83;;
61905;SDS011;47863;55.766;37.672;2023-12-29T01:19:31;3.20;;;1.67;;
61905;SDS011;47863;55.766;37.672;2023-12-29T01:21:57;3.28;;;1.75;;
61905;SDS011;47863;55.766;37.672;2023-12-29T01:24:22;4.32;;;1.80;;
61905;SDS011;47863;55.766;37.672;2023-12-29T01:26:48;3.70;;;1.38;;
61905;SDS011;47863;55.766;37.672;2023-12-29T01:29:13;6.88;;;2.15;;
61905;SDS011;47863;55.766;37.672;2023-12-29T01:31:39;4.55;;;1.52;;
61905;SDS011;47863;55.766;37.672;2023-12-29T01:34:05;3.47;;;1.65;;
61905;SDS011;47863;55.766;37.672;2023-12-29T01:36:30;4.47;;;1.63;;
61905;SDS011;47863;55.766;37.672;2023-12-29T01:38:56;3.45;;;1.75;;
61905;SDS011;47863;55.766;37.672;2023-12-29T01:41:22;2.95;;;1.50;;
61905;SDS011;47863;55.766;37.672;2023-12-29T01:46:27;2.25;;;1.27;;
61905;SDS011;47863;55.766;37.672;2023-12-29T01:48:54;4.50;;;2.17;;
61905;SDS011;47863;55.766;37.672;2023-12-29T01:51:21;3.40;;;1.33;;
61905;SDS011;47863;55.766;37.672;2023-12-29T01:53:50;4.28;;;1.70;;
61905;SDS011;47863;55.766;37.672;2023-12-29T01:56:16;3.33;;;1.58;;
61905;SDS011;47863;55.766;37.672;2023-12-29T01:58:43;3.17;;;1.58;;
61905;SDS011;47863;55.766;37.672;2023-12-29T02:01:09;3.17;;;1.55;;
61905;SDS011;47863;55.766;37.672;2023-12-29T02:03:35;4.03;;;1.45;;
61905;SDS011;47863;55.766;37.672;2023-12-29T02:06:02;6.80;;;2.42;;
61905;SDS011;47863;55.766;37.672;2023-12-29T02:08:29;3.92;;;1.63;;
61905;SDS011;47863;55.766;37.672;2023-12-29T02:10:55;3.70;;;1.48;;
61905;SDS011;47863;55.766;37.672;2023-12-29T02:13:21;2.75;;;1.00;;
61905;SDS011;47863;55.766;37.672;2023-12-29T02:15:49;3.88;;;1.40;;
61905;SDS011;47863;55.766;37.672;2023-12-29T02:18:18;4.40;;;1.70;;
61905;SDS011;47863;55.766;37.672;2023-12-29T02:20:45;4.90;;;1.73;;
61905;SDS011;47863;55.766;37.672;2023-12-29T02:23:11;2.95;;;1.05;;
61905;SDS011;47863;55.766;37.672;2023-12-29T02:25:37;5.65;;;2.45;;
61905;SDS011;47863;55.766;37.672;2023-12-29T02:33:19;3.08;;;1.10;;
61905;SDS011;47863;55.766;37.672;2023-12-29T02:35:46;4.95;;;1.83;;
61905;SDS011;47863;55.766;37.672;2023-12-29T02:38:16;2.88;;;1.40;;
61905;SDS011;47863;55.766;37.672;2023-12-29T02:40:42;3.97;;;1.73;;
61905;SDS011;47863;55.766;37.672;2023-12-29T02:43:10;1.70;;;0.80;;
61905;SDS011;47863;55.766;37.672;2023-12-29T02:45:36;3.30;;;1.58;;
61905;SDS011;47863;55.766;37.672;2023-12-29T02:48:01;5.25;;;1.98;;
61905;SDS011;47863;55.766;37.672;2023-12-29T02:50:27;2.80;;;1.33;;
61905;SDS011;47863;55.766;37.672;2023-12-29T02:52:53;3.20;;;1.45;;
61905;SDS011;47863;55.766;37.672;2023-12-29T02:55:18;3.05;;;1.23;;
61905;SDS011;47863;55.766;37.672;2023-12-29T02:57:44;2.90;;;1.70;;
61905;SDS011;47863;55.766;37.672;2023-12-29T03:00:10;4.35;;;1.50;;
61905;SDS011;47863;55.766;37.672;2023-12-29T03:02:36;2.83;;;1.23;;
61905;SDS011;47863;55.766;37.672;2023-12-29T03:05:02;3.53;;;1.45;;
61905;SDS011;47863;55.766;37.672;2023-12-29T03:07:30;3.60;;;1.55;;
61905;SDS011;47863;55.766;37.672;2023-12-29T03:09:55;2.80;;;1.17;;
61905;SDS011;47863;55.766;37.672;2023-12-29T03:12:21;2.05;;;1.02;;
61905;SDS011;47863;55.766;37.672;2023-12-29T03:14:47;3.05;;;1.40;;
61905;SDS011;47863;55.766;37.672;2023-12-29T03:17:12;2.78;;;1.58;;
61905;SDS011;47863;55.766;37.672;2023-12-29T03:19:38;1.85;;;1.10;;
61905;SDS011;47863;55.766;37.672;2023-12-29T03:22:04;3.10;;;1.42;;
61905;SDS011;47863;55.766;37.672;2023-12-29T03:24:29;3.85;;;1.90;;
61905;SDS011;47863;55.766;37.672;2023-12-29T03:26:56;4.13;;;1.70;;
61905;SDS011;47863;55.766;37.672;2023-12-29T03:29:22;3.35;;;1.65;;
61905;SDS011;47863;55.766;37.672;2023-12-29T03:31:47;2.35;;;1.17;;
61905;SDS011;47863;55.766;37.672;2023-12-29T03:34:13;4.03;;;1.30;;
61905;SDS011;47863;55.766;37.672;2023-12-29T03:36:39;3.83;;;1.75;;
61905;SDS011;47863;55.766;37.672;2023-12-29T03:39:04;3.10;;;1.48;;
61905;SDS011;47863;55.766;37.672;2023-12-29T03:41:30;3.53;;;1.80;;
61905;SDS011;47863;55.766;37.672;2023-12-29T03:43:55;2.47;;;1.17;;
61905;SDS011;47863;55.766;37.672;2023-12-29T03:46:22;3.47;;;1.50;;
61905;SDS011;47863;55.766;37.672;2023-12-29T03:48:48;5.38;;;1.50;;
61905;SDS011;47863;55.766;37.672;2023-12-29T03:51:14;4.63;;;1.58;;
61905;SDS011;47863;55.766;37.672;2023-12-29T03:53:40;3.42;;;1.38;;
61905;SDS011;47863;55.766;37.672;2023-12-29T03:56:16;3.53;;;1.50;;
61905;SDS011;47863;55.766;37.672;2023-12-29T03:58:43;4.28;;;1.60;;
61905;SDS011;47863;55.766;37.672;2023-12-29T04:01:13;4.38;;;1.55;;
61905;SDS011;47863;55.766;37.672;2023-12-29T04:03:39;4.28;;;2.08;;
61905;SDS011;47863;55.766;37.672;2023-12-29T04:06:06;4.82;;;1.40;;
61905;SDS011;47863;55.766;37.672;2023-12-29T04:08:35;2.92;;;1.50;;
61905;SDS011;47863;55.766;37.672;2023-12-29T04:11:02;4.47;;;1.60;;
61905;SDS011;47863;55.766;37.672;2023-12-29T04:13:28;4.03;;;2.22;;
61905;SDS011;47863;55.766;37.672;2023-12-29T04:15:54;5.22;;;1.50;;
61905;SDS011;47863;55.766;37.672;2023-12-29T04:18:20;3.33;;;1.75;;
61905;SDS011;47863;55.766;37.672;2023-12-29T04:20:47;4.97;;;1.73;;
61905;SDS011;47863;55.766;37.672;2023-12-29T04:23:13;5.10;;;2.10;;
61905;SDS011;47863;55.766;37.672;2023-12-29T04:25:39;5.10;;;1.83;;
61905;SDS011;47863;55.766;37.672;2023-12-29T04:28:05;5.55;;;1.70;;
61905;SDS011;47863;55.766;37.672;2023-12-29T04:30:32;3.30;;;1.48;;
61905;SDS011;47863;55.766;37.672;2023-12-29T04:32:57;5.05;;;2.20;;
61905;SDS011;47863;55.766;37.672;2023-12-29T04:35:23;3.97;;;1.77;;
61905;SDS011;47863;55.766;37.672;2023-12-29T04:37:49;5.85;;;1.95;;
61905;SDS011;47863;55.766;37.672;2023-12-29T04:40:16;5.18;;;1.92;;
61905;SDS011;47863;55.766;37.672;2023-12-29T04:42:42;4.90;;;2.20;;
61905;SDS011;47863;55.766;37.672;2023-12-29T04:45:08;5.22;;;1.90;;
61905;SDS011;47863;55.766;37.672;2023-12-29T04:47:34;5.55;;;2.50;;
61905;SDS011;47863;55.766;37.672;2023-12-29T04:49:59;4.80;;;2.33;;
61905;SDS011;47863;55.766;37.672;2023-12-29T04:52:25;7.03;;;2.75;;
61905;SDS011;47863;55.766;37.672;2023-12-29T04:54:51;4.85;;;2.15;;
61905;SDS011;47863;55.766;37.672;2023-12-29T04:57:16;10.02;;;2.38;;
61905;SDS011;47863;55.766;37.672;2023-12-29T04:59:42;4.88;;;1.75;;
61905;SDS011;47863;55.766;37.672;2023-12-29T05:02:07;4.40;;;2.10;;
61905;SDS011;47863;55.766;37.672;2023-12-29T05:04:33;5.03;;;2.30;;
61905;SDS011;47863;55.766;37.672;2023-12-29T05:06:59;5.88;;;2.53;;
61905;SDS011;47863;55.766;37.672;2023-12-29T05:09:24;5.13;;;2.28;;
61905;SDS011;47863;55.766;37.672;2023-12-29T05:11:50;5.13;;;2.15;;
61905;SDS011;47863;55.766;37.672;2023-12-29T05:14:15;6.57;;;2.20;;
61905;SDS011;47863;55.766;37.672;2023-12-29T05:16:41;4.43;;;2.22;;
61905;SDS011;47863;55.766;37.672;2023-12-29T05:19:07;7.82;;;2.72;;
61905;SDS011;47863;55.766;37.672;2023-12-29T05:21:33;5.03;;;2.05;;
61905;SDS011;47863;55.766;37.672;2023-12-29T05:23:59;5.97;;;2.38;;
61905;SDS011;47863;55.766;37.672;2023-12-29T05:26:25;5.53;;;2.05;;
61905;SDS011;47863;55.766;37.672;2023-12-29T05:28:50;6.75;;;1.95;;
61905;SDS011;47863;55.766;37.672;2023-12-29T05:31:16;4.57;;;1.90;;
61905;SDS011;47863;55.766;37.672;2023-12-29T05:33:43;5.47;;;2.33;;
61905;SDS011;47863;55.766;37.672;2023-12-29T05:36:09;4.68;;;1.98;;
61905;SDS011;47863;55.766;37.672;2023-12-29T05:38:36;5.80;;;2.15;;
61905;SDS011;47863;55.766;37.672;2023-12-29T05:41:03;6.18;;;2.40;;
61905;SDS011;47863;55.766;37.672;2023-12-29T05:43:31;5.13;;;2.47;;
61905;SDS011;47863;55.766;37.672;2023-12-29T05:46:00;7.60;;;2.38;;
61905;SDS011;47863;55.766;37.672;2023-12-29T05:48:26;6.68;;;3.08;;
61905;SDS011;47863;55.766;37.672;2023-12-29T05:50:52;6.53;;;2.58;;
61905;SDS011;47863;55.766;37.672;2023-12-29T05:53:17;6.18;;;2.50;;
61905;SDS011;47863;55.766;37.672;2023-12-29T05:55:43;5.03;;;2.15;;
61905;SDS011;47863;55.766;37.672;2023-12-29T05:58:10;6.45;;;2.35;;
61905;SDS011;47863;55.766;37.672;2023-12-29T06:00:36;5.25;;;1.98;;
61905;SDS011;47863;55.766;37.672;2023-12-29T06:03:02;4.53;;;2.03;;
61905;SDS011;47863;55.766;37.672;2023-12-29T06:05:31;5.43;;;2.55;;
61905;SDS011;47863;55.766;37.672;2023-12-29T06:07:57;4.70;;;2.00;;
61905;SDS011;47863;55.766;37.672;2023-12-29T06:10:23;5.97;;;2.20;;
61905;SDS011;47863;55.766;37.672;2023-12-29T06:12:49;4.63;;;2.03;;
61905;SDS011;47863;55.766;37.672;2023-12-29T06:15:15;4.80;;;3.13;;
61905;SDS011;47863;55.766;37.672;2023-12-29T06:17:40;5.70;;;2.35;;
61905;SDS011;47863;55.766;37.672;2023-12-29T06:20:07;6.35;;;2.90;;
61905;SDS011;47863;55.766;37.672;2023-12-29T06:22:38;4.97;;;2.40;;
61905;SDS011;47863;55.766;37.672;2023-12-29T06:25:10;4.43;;;2.33;;
61905;SDS011;47863;55.766;37.672;2023-12-29T06:27:36;5.05;;;2.58;;
61905;SDS011;47863;55.766;37.672;2023-12-29T06:30:04;6.18;;;2.42;;
61905;SDS011;47863;55.766;37.672;2023-12-29T06:32:31;5.53;;;2.33;;
61905;SDS011;47863;55.766;37.672;2023-12-29T06:34:56;7.15;;;2.97;;
61905;SDS011;47863;55.766;37.672;2023-12-29T06:37:22;9.18;;;3.17;;
61905;SDS011;47863;55.766;37.672;2023-12-29T06:39:48;10.00;;;3.08;;
61905;SDS011;47863;55.766;37.672;2023-12-29T06:42:13;8.10;;;3.10;;
61905;SDS011;47863;55.766;37.672;2023-12-29T06:44:39;6.65;;;2.65;;
61905;SDS011;47863;55.766;37.672;2023-12-29T06:47:04;8.60;;;2.70;;
61905;SDS011;47863;55.766;37.672;2023-12-29T06:49:32;8.13;;;3.30;;
61905;SDS011;47863;55.766;37.672;2023-12-29T06:51:59;7.75;;;3.50;;
61905;SDS011;47863;55.766;37.672;2023-12-29T06:54:25;6.40;;;2.78;;
61905;SDS011;47863;55.766;37.672;2023-12-29T06:56:50;6.68;;;3.03;;
61905;SDS011;47863;55.766;37.672;2023-12-29T06:59:16;8.18;;;2.97;;
61905;SDS011;47863;55.766;37.672;2023-12-29T07:01:44;7.78;;;3.17;;
61905;SDS011;47863;55.766;37.672;2023-12-29T07:04:09;7.90;;;3.15;;
61905;SDS011;47863;55.766;37.672;2023-12-29T07:06:35;7.05;;;2.97;;
61905;SDS011;47863;55.766;37.672;2023-12-29T07:09:01;4.57;;;2.15;;
61905;SDS011;47863;55.766;37.672;2023-12-29T07:11:28;8.00;;;3.42;;
61905;SDS011;47863;55.766;37.672;2023-12-29T07:13:54;7.28;;;3.10;;
61905;SDS011;47863;55.766;37.672;2023-12-29T07:16:20;7.78;;;3.47;;
61905;SDS011;47863;55.766;37.672;2023-12-29T07:18:45;8.82;;;3.72;;
61905;SDS011;47863;55.766;37.672;2023-12-29T07:21:12;5.75;;;2.28;;
61905;SDS011;47863;55.766;37.672;2023-12-29T07:23:38;9.15;;;3.55;;
61905;SDS011;47863;55.766;37.672;2023-12-29T07:26:04;8.45;;;4.00;;
61905;SDS011;47863;55.766;37.672;2023-12-29T07:28:31;8.48;;;3.38;;
61905;SDS011;47863;55.766;37.672;2023-12-29T07:30:57;6.90;;;3.00;;
61905;SDS011;47863;55.766;37.672;2023-12-29T07:33:22;5.82;;;2.72;;
61905;SDS011;47863;55.766;37.672;2023-12-29T07:35:49;4.95;;;2.35;;
61905;SDS011;47863;55.766;37.672;2023-12-29T07:38:15;7.70;;;3.13;;
61905;SDS011;47863;55.766;37.672;2023-12-29T07:40:41;6.57;;;2.72;;
61905;SDS011;47863;55.766;37.672;2023-12-29T07:43:07;7.40;;;3.72;;
61905;SDS011;47863;55.766;37.672;2023-12-29T07:45:33;8.20;;;3.67;;
61905;SDS011;47863;55.766;37.672;2023-12-29T07:47:58;7.45;;;3.67;;
61905;SDS011;47863;55.766;37.672;2023-12-29T07:50:24;7.32;;;3.40;;
61905;SDS011;47863;55.766;37.672;2023-12-29T07:52:50;7.88;;;3.72;;
61905;SDS011;47863;55.766;37.672;2023-12-29T07:55:15;6.97;;;3.20;;
61905;SDS011;47863;55.766;37.672;2023-12-29T07:57:44;7.35;;;3.00;;
61905;SDS011;47863;55.766;37.672;2023-12-29T08:00:12;7.38;;;2.95;;
61905;SDS011;47863;55.766;37.672;2023-12-29T08:02:38;9.10;;;3.28;;
61905;SDS011;47863;55.766;37.672;2023-12-29T08:05:04;11.95;;;4.90;;
61905;SDS011;47863;55.766;37.672;2023-12-29T08:07:29;7.95;;;3.25;;
61905;SDS011;47863;55.766;37.672;2023-12-29T08:09:55;7.07;;;3.08;;
61905;SDS011;47863;55.766;37.672;2023-12-29T08:12:21;8.07;;;2.95;;
61905;SDS011;47863;55.766;37.672;2023-12-29T08:14:46;8.13;;;2.92;;
61905;SDS011;47863;55.766;37.672;2023-12-29T08:17:12;7.93;;;3.42;;
61905;SDS011;47863;55.766;37.672;2023-12-29T08:19:38;8.20;;;3.00;;
61905;SDS011;47863;55.766;37.672;2023-12-29T08:22:03;6.50;;;2.85;;
61905;SDS011;47863;55.766;37.672;2023-12-29T08:24:29;5.88;;;3.10;;
61905;SDS011;47863;55.766;37.672;2023-12-29T08:26:54;6.88;;;3.50;;
61905;SDS011;47863;55.766;37.672;2023-12-29T08:29:20;7.78;;;3.70;;
61905;SDS011;47863;55.766;37.672;2023-12-29T08:31:46;8.15;;;3.80;;
61905;SDS011;47863;55.766;37.672;2023-12-29T08:34:12;6.47;;;2.80;;
61905;SDS011;47863;55.766;37.672;2023-12-29T08:36:38;5.88;;;3.17;;
61905;SDS011;47863;55.766;37.672;2023-12-29T08:39:03;11.00;;;4.45;;
61905;SDS011;47863;55.766;37.672;2023-12-29T08:41:29;6.60;;;3.42;;
61905;SDS011;47863;55.766;37.672;2023-12-29T08:43:54;10.05;;;4.40;;
61905;SDS011;47863;55.766;37.672;2023-12-29T08:46:20;9.98;;;4.68;;
61905;SDS011;47863;55.766;37.672;2023-12-29T08:48:46;6.65;;;3.92;;
61905;SDS011;47863;55.766;37.672;2023-12-29T08:51:12;6.95;;;2.78;;
61905;SDS011;47863;55.766;37.672;2023-12-29T08:53:37;7.15;;;2.67;;
61905;SDS011;47863;55.766;37.672;2023-12-29T08:56:03;8.68;;;3.67;;
61905;SDS011;47863;55.766;37.672;2023-12-29T08:58:29;7.13;;;3.65;;
61905;SDS011;47863;55.766;37.672;2023-12-29T09:00:55;8.63;;;3.33;;
61905;SDS011;47863;55.766;37.672;2023-12-29T09:03:21;6.38;;;2.88;;
61905;SDS011;47863;55.766;37.672;2023-12-29T09:05:47;8.93;;;4.00;;
61905;SDS011;47863;55.766;37.672;2023-12-29T09:08:12;8.38;;;3.60;;
61905;SDS011;47863;55.766;37.672;2023-12-29T09:10:38;10.80;;;4.03;;
61905;SDS011;47863;55.766;37.672;2023-12-29T09:13:04;6.57;;;2.70;;
61905;SDS011;47863;55.766;37.672;2023-12-29T09:15:30;9.40;;;4.05;;
61905;SDS011;47863;55.766;37.672;2023-12-29T09:17:56;9.70;;;3.90;;
61905;SDS011;47863;55.766;37.672;2023-12-29T09:20:22;9.70;;;3.65;;
61905;SDS011;47863;55.766;37.672;2023-12-29T09:22:48;8.85;;;3.55;;
61905;SDS011;47863;55.766;37.672;2023-12-29T09:25:14;8.57;;;4.32;;
61905;SDS011;47863;55.766;37.672;2023-12-29T09:27:39;8.73;;;3.80;;
61905;SDS011;47863;55.766;37.672;2023-12-29T09:30:05;8.13;;;3.55;;
61905;SDS011;47863;55.766;37.672;2023-12-29T09:32:31;7.97;;;3.97;;
61905;SDS011;47863;55.766;37.672;2023-12-29T09:34:57;8.15;;;3.78;;
61905;SDS011;47863;55.766;37.672;2023-12-29T09:37:22;6.07;;;3.28;;
61905;SDS011;47863;55.766;37.672;2023-12-29T09:39:48;7.65;;;3.90;;
61905;SDS011;47863;55.766;37.672;2023-12-29T09:42:17;7.32;;;3.65;;
61905;SDS011;47863;55.766;37.672;2023-12-29T09:44:51;9.23;;;4.65;;
61905;SDS011;47863;55.766;37.672;2023-12-29T09:47:25;8.27;;;3.75;;
61905;SDS011;47863;55.766;37.672;2023-12-29T09:49:53;6.55;;;3.13;;
61905;SDS011;47863;55.766;37.672;2023-12-29T09:52:19;6.60;;;3.53;;
61905;SDS011;47863;55.766;37.672;2023-12-29T09:54:50;5.32;;;3.33;;
61905;SDS011;47863;55.766;37.672;2023-12-29T09:57:17;8.88;;;3.75;;
61905;SDS011;47863;55.766;37.672;2023-12-29T09:59:43;6.75;;;3.53;;
61905;SDS011;47863;55.766;37.672;2023-12-29T10:02:16;6.30;;;3.60;;
61905;SDS011;47863;55.766;37.672;2023-12-29T10:04:42;7.78;;;3.33;;
61905;SDS011;47863;55.766;37.672;2023-12-29T10:07:08;7.40;;;3.38;;
61905;SDS011;47863;55.766;37.672;2023-12-29T10:09:38;6.47;;;3.10;;
61905;SDS011;47863;55.766;37.672;2023-12-29T10:12:07;7.18;;;3.60;;
61905;SDS011;47863;55.766;37.672;2023-12-29T10:14:41;8.23;;;4.03;;
61905;SDS011;47863;55.766;37.672;2023-12-29T10:17:27;6.57;;;3.30;;
61905;SDS011;47863;55.766;37.672;2023-12-29T10:25:44;10.02;;;4.25;;
61905;SDS011;47863;55.766;37.672;2023-12-29T10:28:11;6.13;;;3.05;;
61905;SDS011;47863;55.766;37.672;2023-12-29T10:30:38;9.43;;;4.10;;
61905;SDS011;47863;55.766;37.672;2023-12-29T10:33:04;8.15;;;3.67;;
61905;SDS011;47863;55.766;37.672;2023-12-29T10:35:30;7.13;;;2.75;;
61905;SDS011;47863;55.766;37.672;2023-12-29T10:38:12;7.60;;;3.30;;
61905;SDS011;47863;55.766;37.672;2023-12-29T10:40:38;10.55;;;4.38;;
61905;SDS011;47863;55.766;37.672;2023-12-29T10:43:05;8.15;;;3.58;;
61905;SDS011;47863;55.766;37.672;2023-12-29T10:45:33;10.38;;;4.00;;
61905;SDS011;47863;55.766;37.672;2023-12-29T10:48:02;6.35;;;2.67;;
61905;SDS011;47863;55.766;37.672;2023-12-29T10:50:28;12.18;;;4.50;;
61905;SDS011;47863;55.766;37.672;2023-12-29T10:55:38;8.63;;;3.67;;
61905;SDS011;47863;55.766;37.672;2023-12-29T10:58:05;11.40;;;4.88;;
61905;SDS011;47863;55.766;37.672;2023-12-29T11:00:30;9.05;;;3.58;;
61905;SDS011;47863;55.766;37.672;2023-12-29T11:02:58;8.20;;;3.67;;
61905;SDS011;47863;55.766;37.672;2023-12-29T11:05:25;6.10;;;3.10;;
61905;SDS011;47863;55.766;37.672;2023-12-29T11:07:53;5.00;;;2.53;;
61905;SDS011;47863;55.766;37.672;2023-12-29T11:10:20;6.65;;;3.35;;
61905;SDS011;47863;55.766;37.672;2023-12-29T11:12:47;5.93;;;2.80;;
61905;SDS011;47863;55.766;37.672;2023-12-29T11:15:14;7.78;;;4.25;;
61905;SDS011;47863;55.766;37.672;2023-12-29T11:17:41;5.80;;;2.55;;
61905;SDS011;47863;55.766;37.672;2023-12-29T11:20:17;6.88;;;4.07;;
61905;SDS011;47863;55.766;37.672;2023-12-29T11:22:45;7.97;;;3.28;;
61905;SDS011;47863;55.766;37.672;2023-12-29T11:25:12;5.65;;;2.85;;
61905;SDS011;47863;55.766;37.672;2023-12-29T11:27:37;8.05;;;3.63;;
61905;SDS011;47863;55.766;37.672;2023-12-29T11:30:04;5.43;;;2.78;;
61905;SDS011;47863;55.766;37.672;2023-12-29T11:32:53;9.05;;;3.63;;
61905;SDS011;47863;55.766;37.672;2023-12-29T11:35:27;11.10;;;3.92;;
61905;SDS011;47863;55.766;37.672;2023-12-29T11:40:57;6.30;;;2.80;;
61905;SDS011;47863;55.766;37.672;2023-12-29T11:43:25;5.55;;;3.00;;
61905;SDS011;47863;55.766;37.672;2023-12-29T11:45:52;9.05;;;4.18;;
61905;SDS011;47863;55.766;37.672;2023-12-29T11:51:27;5.63;;;2.92;;
61905;SDS011;47863;55.766;37.672;2023-12-29T11:53:57;6.43;;;3.15;;
61905;SDS011;47863;55.766;37.672;2023-12-29T11:56:24;4.80;;;2.60;;
61905;SDS011;47863;55.766;37.672;2023-12-29T11:58:55;7.18;;;3.08;;
61905;SDS011;47863;55.766;37.672;2023-12-29T12:01:33;6.40;;;3.13;;
61905;SDS011;47863;55.766;37.672;2023-12-29T12:04:01;8.40;;;3.17;;
61905;SDS011;47863;55.766;37.672;2023-12-29T12:06:36;5.93;;;2.75;;
61905;SDS011;47863;55.766;37.672;2023-12-29T12:09:15;5.15;;;2.65;;
61905;SDS011;47863;55.766;37.672;2023-12-29T12:11:48;6.95;;;2.85;;
61905;SDS011;47863;55.766;37.672;2023-12-29T12:17:11;5.28;;;2.67;;
61905;SDS011;47863;55.766;37.672;2023-12-29T12:19:37;7.65;;;2.63;;
61905;SDS011;47863;55.766;37.672;2023-12-29T12:22:03;8.57;;;3.60;;
61905;SDS011;47863;55.766;37.672;2023-12-29T12:24:31;8.02;;;3.10;;
61905;SDS011;47863;55.766;37.672;2023-12-29T12:27:00;8.05;;;3.33;;
61905;SDS011;47863;55.766;37.672;2023-12-29T12:29:27;7.15;;;3.50;;
61905;SDS011;47863;55.766;37.672;2023-12-29T12:31:57;6.85;;;3.25;;
61905;SDS011;47863;55.766;37.672;2023-12-29T12:34:23;6.22;;;3.17;;
61905;SDS011;47863;55.766;37.672;2023-12-29T12:36:50;8.57;;;3.60;;
61905;SDS011;47863;55.766;37.672;2023-12-29T12:39:16;6.78;;;2.95;;
61905;SDS011;47863;55.766;37.672;2023-12-29T12:41:42;6.32;;;2.97;;
61905;SDS011;47863;55.766;37.672;2023-12-29T12:44:10;8.15;;;3.22;;
61905;SDS011;47863;55.766;37.672;2023-12-29T12:46:39;7.40;;;3.20;;
61905;SDS011;47863;55.766;37.672;2023-12-29T12:49:10;5.50;;;2.17;;
61905;SDS011;47863;55.766;37.672;2023-12-29T12:51:36;6.45;;;3.20;;
61905;SDS011;47863;55.766;37.672;2023-12-29T12:54:02;7.10;;;3.30;;
61905;SDS011;47863;55.766;37.672;2023-12-29T12:56:28;6.82;;;3.00;;
61905;SDS011;47863;55.766;37.672;2023-12-29T12:58:57;7.40;;;3.22;;
61905;SDS011;47863;55.766;37.672;2023-12-29T13:01:23;6.82;;;3.03;;
61905;SDS011;47863;55.766;37.672;2023-12-29T13:03:50;7.82;;;3.45;;
61905;SDS011;47863;55.766;37.672;2023-12-29T13:06:16;9.02;;;4.03;;
61905;SDS011;47863;55.766;37.672;2023-12-29T13:08:43;7.50;;;3.00;;
61905;SDS011;47863;55.766;37.672;2023-12-29T13:11:10;7.25;;;3.08;;
61905;SDS011;47863;55.766;37.672;2023-12-29T13:13:41;8.45;;;3.20;;
61905;SDS011;47863;55.766;37.672;2023-12-29T13:16:08;6.32;;;3.42;;
61905;SDS011;47863;55.766;37.672;2023-12-29T13:18:34;8.68;;;4.45;;
61905;SDS011;47863;55.766;37.672;2023-12-29T13:21:03;12.80;;;4.40;;
61905;SDS011;47863;55.766;37.672;2023-12-29T13:23:32;6.35;;;3.50;;
61905;SDS011;47863;55.766;37.672;2023-12-29T13:26:07;6.90;;;3.33;;
61905;SDS011;47863;55.766;37.672;2023-12-29T13:28:35;10.25;;;3.50;;
61905;SDS011;47863;55.766;37.672;2023-12-29T13:31:02;7.65;;;3.30;;
61905;SDS011;47863;55.766;37.672;2023-12-29T13:33:39;9.65;;;4.28;;
61905;SDS011;47863;55.766;37.672;2023-12-29T13:36:28;6.53;;;3.00;;
61905;SDS011;47863;55.766;37.672;2023-12-29T13:38:56;8.25;;;4.63;;
61905;SDS011;47863;55.766;37.672;2023-12-29T13:41:24;6.65;;;3.15;;
61905;SDS011;47863;55.766;37.672;2023-12-29T13:43:53;8.38;;;4.40;;
61905;SDS011;47863;55.766;37.672;2023-12-29T13:46:21;5.72;;;3.10;;
61905;SDS011;47863;55.766;37.672;2023-12-29T13:48:47;7.57;;;3.03;;
61905;SDS011;47863;55.766;37.672;2023-12-29T13:51:16;5.35;;;2.83;;
61905;SDS011;47863;55.766;37.672;2023-12-29T13:53:42;6.63;;;3.13;;
61905;SDS011;47863;55.766;37.672;2023-12-29T13:56:10;7.63;;;3.50;;
61905;SDS011;47863;55.766;37.672;2023-12-29T13:58:36;7.30;;;2.97;;
61905;SDS011;47863;55.766;37.672;2023-12-29T14:01:03;6.03;;;3.72;;
61905;SDS011;47863;55.766;37.672;2023-12-29T14:06:27;5.78;;;2.65;;
61905;SDS011;47863;55.766;37.672;2023-12-29T14:08:56;7.85;;;3.10;;
61905;SDS011;47863;55.766;37.672;2023-12-29T14:11:22;7.88;;;3.75;;
61905;SDS011;47863;55.766;37.672;2023-12-29T14:13:48;6.25;;;2.70;;
61905;SDS011;47863;55.766;37.672;2023-12-29T14:16:14;6.25;;;3.03;;
61905;SDS011;47863;55.766;37.672;2023-12-29T14:21:21;8.52;;;3.75;;
61905;SDS011;47863;55.766;37.672;2023-12-29T14:23:58;7.90;;;3.10;;
61905;SDS011;47863;55.766;37.672;2023-12-29T14:26:28;7.30;;;3.58;;
61905;SDS011;47863;55.766;37.672;2023-12-29T14:29:07;5.32;;;2.67;;
61905;SDS011;47863;55.766;37.672;2023-12-29T14:31:34;7.38;;;3.58;;
61905;SDS011;47863;55.766;37.672;2023-12-29T14:34:03;6.97;;;3.70;;
61905;SDS011;47863;55.766;37.672;2023-12-29T14:36:30;7.03;;;3.33;;
61905;SDS011;47863;55.766;37.672;2023-12-29T14:38:59;8.55;;;3.88;;
61905;SDS011;47863;55.766;37.672;2023-12-29T14:41:25;9.18;;;3.78;;
61905;SDS011;47863;55.766;37.672;2023-12-29T14:43:51;7.00;;;2.90;;
61905;SDS011;47863;55.766;37.672;2023-12-29T14:46:18;9.82;;;3.60;;
61905;SDS011;47863;55.766;37.672;2023-12-29T14:48:44;8.70;;;3.72;;
61905;SDS011;47863;55.766;37.672;2023-12-29T14:51:09;6.80;;;3.42;;
61905;SDS011;47863;55.766;37.672;2023-12-29T14:53:36;7.18;;;3.00;;
61905;SDS011;47863;55.766;37.672;2023-12-29T14:56:03;8.73;;;3.83;;
61905;SDS011;47863;55.766;37.672;2023-12-29T14:58:29;9.18;;;4.05;;
61905;SDS011;47863;55.766;37.672;2023-12-29T15:00:55;9.15;;;4.10;;
61905;SDS011;47863;55.766;37.672;2023-12-29T15:03:21;8.30;;;3.15;;